createdAt,value
2017-09-15T00:00:45.343Z,0
2017-09-15T00:01:45.361Z,0
2017-09-15T00:02:45.366Z,0
2017-09-15T00:03:45.407Z,0
2017-09-15T00:04:45.408Z,0
2017-09-15T00:05:45.367Z,0
2017-09-15T00:06:45.290Z,0
2017-09-15T00:07:45.332Z,0
2017-09-15T00:08:45.365Z,0
2017-09-15T00:09:45.331Z,0
2017-09-15T00:10:45.364Z,0
2017-09-15T00:11:45.307Z,0
2017-09-15T00:12:45.434Z,0
2017-09-15T00:13:45.362Z,0
2017-09-15T00:14:45.308Z,0
2017-09-15T00:15:45.310Z,0
2017-09-15T00:16:45.426Z,0
2017-09-15T00:17:45.354Z,0
2017-09-15T00:18:45.424Z,0
2017-09-15T00:19:45.401Z,0
2017-09-15T00:20:45.372Z,0
2017-09-15T00:21:45.357Z,0
2017-09-15T00:23:45.358Z,0
2017-09-15T00:24:45.428Z,0
2017-09-15T00:25:45.374Z,0
2017-09-15T00:26:45.378Z,0
2017-09-15T00:27:45.382Z,0
2017-09-15T00:28:45.405Z,0
2017-09-15T00:29:45.377Z,0
2017-09-15T00:30:45.453Z,0
2017-09-15T00:31:45.336Z,0
2017-09-15T00:32:45.409Z,0
2017-09-15T00:33:45.328Z,0
2017-09-15T00:34:45.385Z,0
2017-09-15T00:35:45.384Z,0
2017-09-15T00:36:45.428Z,0
2017-09-15T00:37:45.337Z,0
2017-09-15T00:38:45.368Z,0
2017-09-15T00:39:45.387Z,0
2017-09-15T00:40:45.433Z,0
2017-09-15T00:41:45.385Z,0
2017-09-15T00:42:45.389Z,0
2017-09-15T00:43:45.401Z,0
2017-09-15T00:44:45.402Z,0
2017-09-15T00:45:45.390Z,0
2017-09-15T00:46:45.435Z,0
2017-09-15T00:47:45.390Z,0
2017-09-15T00:48:45.426Z,0
2017-09-15T00:49:45.428Z,0
2017-09-15T00:50:45.338Z,0
2017-09-15T00:51:45.385Z,0
2017-09-15T00:52:45.404Z,0
2017-09-15T00:53:45.338Z,0
2017-09-15T00:54:45.389Z,0
2017-09-15T00:55:45.433Z,0
2017-09-15T00:56:45.387Z,0
2017-09-15T00:57:45.397Z,0
2017-09-15T00:58:45.398Z,0
2017-09-15T00:59:45.350Z,0
2017-09-15T01:00:45.448Z,0
2017-09-15T01:01:45.538Z,0
2017-09-15T01:02:45.399Z,0
2017-09-15T01:03:45.393Z,0
2017-09-15T01:04:45.396Z,0
2017-09-15T01:05:45.445Z,0
2017-09-15T01:06:45.455Z,0
2017-09-15T01:07:45.399Z,0
2017-09-15T01:08:45.403Z,0
2017-09-15T01:09:45.340Z,0
2017-09-15T01:10:45.367Z,0
2017-09-15T01:11:45.339Z,0
2017-09-15T01:12:45.377Z,0
2017-09-15T01:13:45.408Z,0
2017-09-15T01:14:45.373Z,0
2017-09-15T01:15:45.373Z,0
2017-09-15T01:16:45.411Z,0
2017-09-15T01:17:45.408Z,0
2017-09-15T01:18:45.376Z,0
2017-09-15T01:19:45.377Z,0
2017-09-15T01:20:45.346Z,0
2017-09-15T01:21:45.349Z,0
2017-09-15T01:22:45.378Z,0
2017-09-15T01:23:45.409Z,0
2017-09-15T01:24:45.350Z,0
2017-09-15T01:25:45.380Z,0
2017-09-15T01:26:45.457Z,0
2017-09-15T01:27:45.356Z,0
2017-09-15T01:28:45.410Z,0
2017-09-15T01:29:45.420Z,0
2017-09-15T01:30:45.449Z,0
2017-09-15T01:31:45.412Z,0
2017-09-15T01:32:45.405Z,0
2017-09-15T01:33:45.409Z,0
2017-09-15T01:34:45.417Z,0
2017-09-15T01:35:45.461Z,0
2017-09-15T01:36:45.395Z,0
2017-09-15T01:37:45.384Z,0
2017-09-15T01:38:45.420Z,0
2017-09-15T01:39:45.434Z,0
2017-09-15T01:40:45.374Z,0
2017-09-15T01:41:45.432Z,0
2017-09-15T01:42:45.422Z,0
2017-09-15T01:43:45.495Z,0
2017-09-15T01:44:45.471Z,0
2017-09-15T01:45:45.427Z,0
2017-09-15T01:46:45.471Z,0
2017-09-15T01:47:45.404Z,0
2017-09-15T01:48:45.476Z,0
2017-09-15T01:49:45.429Z,0
2017-09-15T01:50:45.426Z,0
2017-09-15T01:51:45.393Z,0
2017-09-15T01:52:45.433Z,0
2017-09-15T01:53:45.480Z,0
2017-09-15T01:54:45.431Z,0
2017-09-15T01:55:45.493Z,0
2017-09-15T01:56:45.381Z,0
2017-09-15T01:57:45.498Z,0
2017-09-15T01:58:45.428Z,0
2017-09-15T01:59:45.390Z,0
2017-09-15T02:00:45.435Z,0
2017-09-15T02:01:45.435Z,0
2017-09-15T02:02:45.481Z,0
2017-09-15T02:03:45.478Z,0
2017-09-15T02:04:45.439Z,0
2017-09-15T02:05:45.485Z,0
2017-09-15T02:06:45.444Z,0
2017-09-15T02:07:45.404Z,0
2017-09-15T02:08:45.439Z,0
2017-09-15T02:09:45.399Z,0
2017-09-15T02:10:45.402Z,0
2017-09-15T02:11:45.406Z,0
2017-09-15T02:12:45.381Z,0
2017-09-15T02:13:45.441Z,0
2017-09-15T02:14:45.440Z,0
2017-09-15T02:15:45.382Z,0
2017-09-15T02:16:45.441Z,0
2017-09-15T02:17:45.445Z,0
2017-09-15T02:18:45.412Z,0
2017-09-15T02:19:45.409Z,0
2017-09-15T02:20:45.444Z,0
2017-09-15T02:21:45.387Z,0
2017-09-15T02:22:45.386Z,0
2017-09-15T02:23:45.410Z,0
2017-09-15T02:24:45.511Z,0
2017-09-15T02:25:45.450Z,0
2017-09-15T02:26:45.415Z,0
2017-09-15T02:27:45.512Z,0
2017-09-15T02:28:45.500Z,0
2017-09-15T02:29:45.454Z,0
2017-09-15T02:30:45.458Z,0
2017-09-15T02:31:45.475Z,0
2017-09-15T02:32:45.529Z,0
2017-09-15T02:33:45.462Z,0
2017-09-15T02:34:45.462Z,0
2017-09-15T02:35:45.455Z,0
2017-09-15T02:36:45.460Z,0
2017-09-15T02:37:45.460Z,0
2017-09-15T02:38:45.459Z,0
2017-09-15T02:39:45.438Z,0
2017-09-15T02:40:45.498Z,0
2017-09-15T02:41:45.409Z,0
2017-09-15T02:42:45.466Z,0
2017-09-15T02:43:45.506Z,0
2017-09-15T02:44:45.460Z,0
2017-09-15T02:45:45.423Z,0
2017-09-15T02:46:45.524Z,0
2017-09-15T02:47:45.435Z,0
2017-09-15T02:48:45.475Z,0
2017-09-15T02:49:45.458Z,0
2017-09-15T02:50:45.444Z,0
2017-09-15T02:51:45.443Z,0
2017-09-15T02:52:45.511Z,0
2017-09-15T02:53:45.435Z,0
2017-09-15T02:54:45.461Z,0
2017-09-15T02:55:45.439Z,0
2017-09-15T02:56:45.444Z,0
2017-09-15T02:57:45.520Z,0
2017-09-15T02:58:45.432Z,0
2017-09-15T02:59:45.432Z,0
2017-09-15T03:00:45.434Z,0
2017-09-15T03:01:45.468Z,0
2017-09-15T03:02:45.406Z,0
2017-09-15T03:03:45.410Z,0
2017-09-15T03:04:45.409Z,0
2017-09-15T03:05:45.474Z,0
2017-09-15T03:06:45.410Z,0
2017-09-15T03:07:45.423Z,0
2017-09-15T03:08:45.446Z,0
2017-09-15T03:09:45.439Z,0
2017-09-15T03:10:45.474Z,0
2017-09-15T03:11:45.443Z,0
2017-09-15T03:12:45.413Z,0
2017-09-15T03:13:45.477Z,0
2017-09-15T03:14:45.447Z,0
2017-09-15T03:15:45.496Z,0
2017-09-15T03:16:45.494Z,0
2017-09-15T03:17:45.446Z,0
2017-09-15T03:18:45.446Z,0
2017-09-15T03:19:45.447Z,0
2017-09-15T03:20:45.497Z,0
2017-09-15T03:21:45.447Z,0
2017-09-15T03:22:45.420Z,0
2017-09-15T03:23:45.432Z,0
2017-09-15T03:24:45.448Z,0
2017-09-15T03:25:45.451Z,0
2017-09-15T03:26:45.423Z,0
2017-09-15T03:27:45.444Z,0
2017-09-15T03:28:45.488Z,0
2017-09-15T03:29:45.501Z,0
2017-09-15T03:30:45.450Z,0
2017-09-15T03:31:45.452Z,0
2017-09-15T03:32:45.452Z,0
2017-09-15T03:33:45.422Z,0
2017-09-15T03:34:45.454Z,0
2017-09-15T03:35:45.430Z,0
2017-09-15T03:36:45.457Z,0
2017-09-15T03:37:45.543Z,0
2017-09-15T03:38:45.493Z,0
2017-09-15T03:39:45.557Z,0
2017-09-15T03:40:45.494Z,0
2017-09-15T03:41:45.558Z,0
2017-09-15T03:42:45.499Z,0
2017-09-15T03:43:45.568Z,0
2017-09-15T03:44:45.500Z,0
2017-09-15T03:45:45.560Z,0
2017-09-15T03:46:45.503Z,0
2017-09-15T03:47:45.562Z,0
2017-09-15T03:48:45.499Z,0
2017-09-15T03:49:45.507Z,0
2017-09-15T03:50:45.504Z,0
2017-09-15T03:51:45.504Z,0
2017-09-15T03:52:45.502Z,0
2017-09-15T03:53:45.553Z,0
2017-09-15T03:54:45.551Z,0
2017-09-15T03:55:45.553Z,0
2017-09-15T03:56:45.506Z,0
2017-09-15T03:57:45.474Z,0
2017-09-15T03:58:45.441Z,0
2017-09-15T03:59:45.475Z,0
2017-09-15T04:00:45.521Z,0
2017-09-15T04:01:45.446Z,0
2017-09-15T04:02:45.442Z,0
2017-09-15T04:03:45.443Z,0
2017-09-15T04:04:45.430Z,0
2017-09-15T04:05:45.445Z,0
2017-09-15T04:06:45.526Z,0
2017-09-15T04:07:45.490Z,0
2017-09-15T04:08:45.485Z,0
2017-09-15T04:09:45.478Z,0
2017-09-15T04:10:45.480Z,0
2017-09-15T04:11:45.502Z,0
2017-09-15T04:12:45.480Z,0
2017-09-15T04:13:45.481Z,0
2017-09-15T04:14:45.462Z,0
2017-09-15T04:15:45.515Z,0
2017-09-15T04:16:45.553Z,0
2017-09-15T04:17:45.542Z,0
2017-09-15T04:18:45.532Z,0
2017-09-15T04:19:45.564Z,0
2017-09-15T04:20:45.514Z,0
2017-09-15T04:21:45.567Z,0
2017-09-15T04:22:45.514Z,0
2017-09-15T04:23:45.589Z,0
2017-09-15T04:24:45.561Z,0
2017-09-15T04:25:45.533Z,0
2017-09-15T04:26:45.572Z,0
2017-09-15T04:27:45.593Z,0
2017-09-15T04:28:45.567Z,0
2017-09-15T04:29:45.568Z,0
2017-09-15T04:30:45.565Z,0
2017-09-15T04:31:45.572Z,0
2017-09-15T04:32:45.567Z,0
2017-09-15T04:33:45.568Z,0
2017-09-15T04:34:45.505Z,0
2017-09-15T04:35:45.570Z,0
2017-09-15T04:36:45.555Z,0
2017-09-15T04:37:45.573Z,0
2017-09-15T04:38:45.692Z,0
2017-09-15T04:39:45.523Z,0
2017-09-15T04:40:45.483Z,0
2017-09-15T04:41:45.528Z,0
2017-09-15T04:42:45.580Z,0
2017-09-15T04:43:45.592Z,0
2017-09-15T04:44:45.535Z,0
2017-09-15T04:45:45.530Z,0
2017-09-15T04:46:45.581Z,0
2017-09-15T04:47:45.546Z,0
2017-09-15T04:48:45.496Z,0
2017-09-15T04:49:45.469Z,0
2017-09-15T04:50:45.470Z,0
2017-09-15T04:51:45.502Z,0
2017-09-15T04:52:45.542Z,0
2017-09-15T04:53:45.542Z,0
2017-09-15T04:54:45.473Z,0
2017-09-15T04:55:45.476Z,0
2017-09-15T04:56:45.540Z,0
2017-09-15T04:57:45.586Z,0
2017-09-15T04:58:45.542Z,0
2017-09-15T04:59:45.597Z,0
2017-09-15T05:00:45.543Z,0
2017-09-15T05:01:45.545Z,0
2017-09-15T05:02:45.605Z,0
2017-09-15T05:03:45.587Z,0
2017-09-15T05:04:45.543Z,0
2017-09-15T05:05:45.544Z,0
2017-09-15T05:06:45.546Z,0
2017-09-15T05:07:45.545Z,0
2017-09-15T05:08:45.529Z,0
2017-09-15T05:09:45.593Z,0
2017-09-15T05:10:45.548Z,0
2017-09-15T05:11:45.561Z,0
2017-09-15T05:12:45.552Z,0
2017-09-15T05:13:45.547Z,0
2017-09-15T05:14:45.492Z,0
2017-09-15T05:15:45.561Z,0
2017-09-15T05:16:45.603Z,0
2017-09-15T05:17:45.516Z,0
2017-09-15T05:18:45.517Z,0
2017-09-15T05:19:45.555Z,0
2017-09-15T05:20:45.602Z,0
2017-09-15T05:21:45.518Z,0
2017-09-15T05:22:45.490Z,0
2017-09-15T05:23:45.555Z,0
2017-09-15T05:24:45.494Z,0
2017-09-15T05:25:45.512Z,0
2017-09-15T05:26:45.521Z,0
2017-09-15T05:27:45.556Z,0
2017-09-15T05:28:45.537Z,0
2017-09-15T05:29:45.603Z,0
2017-09-15T05:30:45.598Z,0
2017-09-15T05:31:45.609Z,0
2017-09-15T05:32:45.507Z,0
2017-09-15T05:33:45.583Z,0
2017-09-15T05:34:45.511Z,0
2017-09-15T05:35:45.613Z,0
2017-09-15T05:36:45.558Z,20
2017-09-15T05:37:45.496Z,26
2017-09-15T05:38:45.508Z,26
2017-09-15T05:39:45.512Z,25
2017-09-15T05:40:45.499Z,23
2017-09-15T05:41:45.501Z,21
2017-09-15T05:42:45.498Z,18
2017-09-15T05:43:45.572Z,14
2017-09-15T05:44:45.537Z,16
2017-09-15T05:45:45.527Z,16
2017-09-15T05:46:45.462Z,19
2017-09-15T05:47:45.548Z,21
2017-09-15T05:48:45.517Z,22
2017-09-15T05:49:45.579Z,26
2017-09-15T05:50:45.610Z,35
2017-09-15T05:51:45.592Z,41
2017-09-15T05:52:45.609Z,47
2017-09-15T05:53:45.577Z,57
2017-09-15T05:54:45.549Z,61
2017-09-15T05:55:45.639Z,53
2017-09-15T05:56:45.517Z,49
2017-09-15T05:57:45.507Z,47
2017-09-15T05:58:45.536Z,46
2017-09-15T05:59:45.567Z,45
2017-09-15T06:00:45.567Z,43
2017-09-15T06:01:45.577Z,42
2017-09-15T06:02:45.515Z,48
2017-09-15T06:03:45.512Z,55
2017-09-15T06:04:45.513Z,54
2017-09-15T06:05:45.572Z,50
2017-09-15T06:06:45.537Z,45
2017-09-15T06:07:45.592Z,37
2017-09-15T06:08:45.577Z,33
2017-09-15T06:09:45.553Z,35
2017-09-15T06:10:45.545Z,39
2017-09-15T06:11:45.546Z,39
2017-09-15T06:12:45.546Z,41
2017-09-15T06:13:45.580Z,43
2017-09-15T06:14:45.518Z,43
2017-09-15T06:15:45.584Z,47
2017-09-15T06:16:45.555Z,50
2017-09-15T06:17:45.531Z,55
2017-09-15T06:18:45.582Z,56
2017-09-15T06:19:45.636Z,56
2017-09-15T06:20:45.530Z,56
2017-09-15T06:21:45.567Z,56
2017-09-15T06:22:45.564Z,57
2017-09-15T06:23:45.613Z,62
2017-09-15T06:24:45.639Z,72
2017-09-15T06:25:45.588Z,85
2017-09-15T06:26:45.631Z,73
2017-09-15T06:27:45.549Z,65
2017-09-15T06:28:45.574Z,69
2017-09-15T06:29:45.508Z,71
2017-09-15T06:30:45.517Z,65
2017-09-15T06:31:45.526Z,59
2017-09-15T06:32:45.515Z,55
2017-09-15T06:33:45.508Z,47
2017-09-15T06:34:45.530Z,46
2017-09-15T06:35:45.553Z,53
2017-09-15T06:36:45.517Z,68
2017-09-15T06:37:45.639Z,66
2017-09-15T06:38:45.597Z,62
2017-09-15T06:39:45.641Z,71
2017-09-15T06:40:45.608Z,82
2017-09-15T06:41:45.594Z,78
2017-09-15T06:42:45.637Z,83
2017-09-15T06:43:45.664Z,80
2017-09-15T06:44:45.657Z,81
2017-09-15T06:45:45.545Z,82
2017-09-15T06:46:45.614Z,88
2017-09-15T06:47:45.671Z,115
2017-09-15T06:48:45.549Z,127
2017-09-15T06:49:45.585Z,142
2017-09-15T06:50:45.567Z,131
2017-09-15T06:51:45.568Z,97
2017-09-15T06:52:45.615Z,69
2017-09-15T06:53:45.648Z,67
2017-09-15T06:54:45.650Z,76
2017-09-15T06:55:45.608Z,77
2017-09-15T06:56:45.656Z,71
2017-09-15T06:57:45.581Z,83
2017-09-15T06:58:45.541Z,98
2017-09-15T06:59:45.542Z,108
2017-09-15T07:00:45.607Z,104
2017-09-15T07:01:45.613Z,92
2017-09-15T07:02:45.575Z,86
2017-09-15T07:03:45.545Z,95
2017-09-15T07:04:45.574Z,106
2017-09-15T07:05:45.547Z,148
2017-09-15T07:06:45.606Z,224
2017-09-15T07:07:45.574Z,231
2017-09-15T07:08:45.610Z,314
2017-09-15T07:09:45.574Z,303
2017-09-15T07:10:45.615Z,291
2017-09-15T07:11:45.680Z,298
2017-09-15T07:12:45.552Z,339
2017-09-15T07:13:45.614Z,194
2017-09-15T07:14:45.554Z,208
2017-09-15T07:15:45.617Z,238
2017-09-15T07:16:45.552Z,267
2017-09-15T07:17:45.624Z,257
2017-09-15T07:18:45.664Z,229
2017-09-15T07:19:45.661Z,223
2017-09-15T07:20:45.567Z,208
2017-09-15T07:21:45.600Z,184
2017-09-15T07:22:45.667Z,148
2017-09-15T07:23:45.621Z,122
2017-09-15T07:24:45.606Z,113
2017-09-15T07:25:45.700Z,110
2017-09-15T07:26:45.621Z,110
2017-09-15T07:27:45.624Z,122
2017-09-15T07:28:45.579Z,119
2017-09-15T07:29:45.681Z,132
2017-09-15T07:30:45.671Z,121
2017-09-15T07:31:45.643Z,115
2017-09-15T07:32:45.631Z,114
2017-09-15T07:33:45.599Z,121
2017-09-15T07:34:45.630Z,236
2017-09-15T07:35:45.660Z,249
2017-09-15T07:36:45.681Z,396
2017-09-15T07:37:45.597Z,478
2017-09-15T07:38:45.603Z,431
2017-09-15T07:39:45.636Z,612
2017-09-15T07:40:45.568Z,396
2017-09-15T07:41:45.577Z,643
2017-09-15T07:42:45.600Z,422
2017-09-15T07:43:45.602Z,486
2017-09-15T07:44:45.601Z,622
2017-09-15T07:45:45.633Z,621
2017-09-15T07:46:45.574Z,641
2017-09-15T07:47:45.606Z,634
2017-09-15T07:48:45.658Z,611
2017-09-15T07:49:45.711Z,582
2017-09-15T07:50:45.683Z,569
2017-09-15T07:51:45.709Z,578
2017-09-15T07:52:45.590Z,376
2017-09-15T07:53:45.639Z,548
2017-09-15T07:54:45.594Z,589
2017-09-15T07:55:45.641Z,404
2017-09-15T07:56:45.638Z,366
2017-09-15T07:57:45.654Z,169
2017-09-15T07:58:45.649Z,169
2017-09-15T07:59:45.608Z,214
2017-09-15T08:00:45.656Z,569
2017-09-15T08:01:45.652Z,524
2017-09-15T08:02:45.664Z,551
2017-09-15T08:03:45.696Z,567
2017-09-15T08:04:45.611Z,579
2017-09-15T08:05:45.699Z,375
2017-09-15T08:06:45.647Z,347
2017-09-15T08:07:45.693Z,341
2017-09-15T08:08:45.719Z,301
2017-09-15T08:09:45.677Z,473
2017-09-15T08:10:45.737Z,645
2017-09-15T08:11:45.665Z,454
2017-09-15T08:12:45.694Z,636
2017-09-15T08:13:45.657Z,512
2017-09-15T08:14:45.614Z,527
2017-09-15T08:15:45.653Z,670
2017-09-15T08:16:45.655Z,656
2017-09-15T08:17:45.704Z,260
2017-09-15T08:18:45.657Z,695
2017-09-15T08:19:45.657Z,733
2017-09-15T08:20:45.705Z,720
2017-09-15T08:21:45.653Z,373
2017-09-15T08:22:45.723Z,324
2017-09-15T08:23:45.670Z,540
2017-09-15T08:24:45.658Z,764
2017-09-15T08:25:45.708Z,759
2017-09-15T08:26:45.629Z,715
2017-09-15T08:27:45.608Z,330
2017-09-15T08:28:45.620Z,303
2017-09-15T08:29:45.630Z,850
2017-09-15T08:31:45.691Z,444
2017-09-15T08:32:45.691Z,381
2017-09-15T08:33:45.633Z,390
2017-09-15T08:34:45.643Z,355
2017-09-15T08:35:45.673Z,458
2017-09-15T08:36:45.636Z,345
2017-09-15T08:37:45.705Z,338
2017-09-15T08:38:45.677Z,770
2017-09-15T08:39:45.644Z,301
2017-09-15T08:40:45.644Z,257
2017-09-15T08:41:45.709Z,327
2017-09-15T08:42:45.609Z,323
2017-09-15T08:43:45.665Z,444
2017-09-15T08:44:45.674Z,332
2017-09-15T08:45:45.710Z,302
2017-09-15T08:46:45.673Z,344
2017-09-15T08:47:45.650Z,355
2017-09-15T08:48:45.714Z,369
2017-09-15T08:49:45.675Z,412
2017-09-15T08:50:45.719Z,373
2017-09-15T08:51:45.651Z,362
2017-09-15T08:52:45.672Z,739
2017-09-15T08:53:45.821Z,444
2017-09-15T08:54:45.727Z,943
2017-09-15T08:55:45.617Z,1033
2017-09-15T08:56:45.656Z,656
2017-09-15T08:57:45.620Z,661
2017-09-15T08:58:45.585Z,431
2017-09-15T08:59:45.650Z,338
2017-09-15T09:00:45.592Z,305
2017-09-15T09:01:45.599Z,269
2017-09-15T09:02:45.643Z,271
2017-09-15T09:03:45.623Z,208
2017-09-15T09:04:45.629Z,199
2017-09-15T09:05:45.596Z,201
2017-09-15T09:06:45.620Z,211
2017-09-15T09:07:45.639Z,222
2017-09-15T09:08:45.724Z,236
2017-09-15T09:09:45.667Z,262
2017-09-15T09:10:45.737Z,301
2017-09-15T09:11:45.684Z,340
2017-09-15T09:12:45.688Z,410
2017-09-15T09:13:45.636Z,563
2017-09-15T09:14:45.736Z,423
2017-09-15T09:15:45.743Z,453
2017-09-15T09:16:45.651Z,763
2017-09-15T09:17:45.670Z,798
2017-09-15T09:18:45.684Z,986
2017-09-15T09:19:45.729Z,971
2017-09-15T09:20:45.631Z,897
2017-09-15T09:21:45.745Z,786
2017-09-15T09:22:45.703Z,780
2017-09-15T09:23:45.701Z,1028
2017-09-15T09:24:45.702Z,1068
2017-09-15T09:25:45.671Z,658
2017-09-15T09:26:45.630Z,432
2017-09-15T09:27:45.706Z,436
2017-09-15T09:28:45.632Z,406
2017-09-15T09:29:45.695Z,639
2017-09-15T09:30:45.632Z,452
2017-09-15T09:31:45.697Z,559
2017-09-15T09:32:45.633Z,382
2017-09-15T09:33:45.694Z,383
2017-09-15T09:34:45.699Z,403
2017-09-15T09:35:45.660Z,422
2017-09-15T09:36:45.698Z,439
2017-09-15T09:37:45.636Z,610
2017-09-15T09:38:45.778Z,498
2017-09-15T09:39:45.728Z,520
2017-09-15T09:40:45.700Z,1094
2017-09-15T09:41:45.684Z,460
2017-09-15T09:42:45.705Z,594
2017-09-15T09:43:45.749Z,1085
2017-09-15T09:44:45.731Z,892
2017-09-15T09:45:45.707Z,417
2017-09-15T09:46:45.651Z,341
2017-09-15T09:47:45.748Z,396
2017-09-15T09:48:45.669Z,888
2017-09-15T09:49:45.719Z,297
2017-09-15T09:50:45.658Z,629
2017-09-15T09:51:45.653Z,570
2017-09-15T09:52:45.713Z,591
2017-09-15T09:53:45.722Z,725
2017-09-15T09:54:45.704Z,609
2017-09-15T09:55:45.740Z,573
2017-09-15T09:56:45.690Z,594
2017-09-15T09:57:45.665Z,858
2017-09-15T09:58:45.677Z,505
2017-09-15T09:59:45.707Z,574
2017-09-15T10:00:45.650Z,432
2017-09-15T10:01:45.648Z,413
2017-09-15T10:02:45.649Z,899
2017-09-15T10:03:45.713Z,849
2017-09-15T10:04:45.715Z,871
2017-09-15T10:05:45.683Z,860
2017-09-15T10:06:45.680Z,844
2017-09-15T10:07:45.718Z,875
2017-09-15T10:08:45.669Z,897
2017-09-15T10:09:45.642Z,909
2017-09-15T10:10:45.686Z,170
2017-09-15T10:11:45.668Z,164
2017-09-15T10:12:45.644Z,171
2017-09-15T10:13:45.632Z,206
2017-09-15T10:14:45.635Z,896
2017-09-15T10:15:45.727Z,375
2017-09-15T10:16:45.685Z,308
2017-09-15T10:17:45.692Z,966
2017-09-15T10:18:45.790Z,970
2017-09-15T10:19:45.753Z,971
2017-09-15T10:20:45.727Z,514
2017-09-15T10:21:45.683Z,977
2017-09-15T10:22:45.774Z,235
2017-09-15T10:23:45.726Z,407
2017-09-15T10:24:45.777Z,988
2017-09-15T10:25:45.677Z,854
2017-09-15T10:26:45.732Z,694
2017-09-15T10:27:45.767Z,916
2017-09-15T10:28:45.741Z,1001
2017-09-15T10:29:45.768Z,1011
2017-09-15T10:30:45.733Z,1013
2017-09-15T10:31:45.737Z,1053
2017-09-15T10:32:45.700Z,1073
2017-09-15T10:33:45.713Z,1061
2017-09-15T10:34:45.694Z,1064
2017-09-15T10:35:45.739Z,1061
2017-09-15T10:36:45.699Z,1023
2017-09-15T10:37:45.746Z,403
2017-09-15T10:38:45.722Z,1083
2017-09-15T10:39:45.786Z,1027
2017-09-15T10:40:45.755Z,649
2017-09-15T10:41:45.786Z,495
2017-09-15T10:42:45.692Z,492
2017-09-15T10:43:45.793Z,518
2017-09-15T10:44:45.722Z,535
2017-09-15T10:45:45.744Z,593
2017-09-15T10:46:45.724Z,566
2017-09-15T10:47:45.748Z,498
2017-09-15T10:48:45.788Z,502
2017-09-15T10:49:45.744Z,497
2017-09-15T10:50:45.744Z,620
2017-09-15T10:51:45.811Z,505
2017-09-15T10:52:45.791Z,471
2017-09-15T10:53:45.817Z,445
2017-09-15T10:54:45.707Z,415
2017-09-15T10:55:45.709Z,389
2017-09-15T10:56:45.696Z,366
2017-09-15T10:57:45.758Z,349
2017-09-15T10:58:45.692Z,334
2017-09-15T10:59:45.691Z,321
2017-09-15T11:00:45.756Z,308
2017-09-15T11:01:45.693Z,289
2017-09-15T11:02:45.694Z,276
2017-09-15T11:03:45.702Z,264
2017-09-15T11:04:45.699Z,251
2017-09-15T11:05:45.790Z,239
2017-09-15T11:06:45.697Z,235
2017-09-15T11:07:45.733Z,241
2017-09-15T11:08:45.801Z,254
2017-09-15T11:09:45.740Z,274
2017-09-15T11:10:45.769Z,302
2017-09-15T11:11:45.807Z,350
2017-09-15T11:12:45.769Z,453
2017-09-15T11:13:45.811Z,1069
2017-09-15T11:14:45.827Z,1083
2017-09-15T11:15:45.722Z,1074
2017-09-15T11:16:45.832Z,1061
2017-09-15T11:17:45.767Z,1044
2017-09-15T11:18:45.792Z,909
2017-09-15T11:19:45.765Z,910
2017-09-15T11:20:45.742Z,920
2017-09-15T11:21:45.713Z,967
2017-09-15T11:22:45.722Z,766
2017-09-15T11:23:45.803Z,852
2017-09-15T11:24:45.726Z,772
2017-09-15T11:25:45.761Z,845
2017-09-15T11:26:45.831Z,690
2017-09-15T11:27:45.717Z,997
2017-09-15T11:28:45.795Z,1035
2017-09-15T11:29:45.770Z,416
2017-09-15T11:30:45.707Z,494
2017-09-15T11:31:45.710Z,378
2017-09-15T11:32:45.770Z,385
2017-09-15T11:33:45.751Z,409
2017-09-15T11:34:45.785Z,417
2017-09-15T11:35:45.763Z,426
2017-09-15T11:36:45.730Z,435
2017-09-15T11:37:45.721Z,448
2017-09-15T11:38:45.764Z,488
2017-09-15T11:39:45.723Z,484
2017-09-15T11:40:45.800Z,501
2017-09-15T11:41:45.780Z,515
2017-09-15T11:42:45.800Z,578
2017-09-15T11:43:45.803Z,492
2017-09-15T11:44:45.757Z,508
2017-09-15T11:45:45.783Z,507
2017-09-15T11:46:45.721Z,509
2017-09-15T11:47:45.828Z,446
2017-09-15T11:48:45.715Z,406
2017-09-15T11:49:45.687Z,381
2017-09-15T11:50:45.740Z,378
2017-09-15T11:51:45.745Z,421
2017-09-15T11:52:45.748Z,549
2017-09-15T11:53:45.694Z,1028
2017-09-15T11:54:45.723Z,1100
2017-09-15T11:55:45.793Z,567
2017-09-15T11:56:45.757Z,482
2017-09-15T11:57:45.743Z,447
2017-09-15T11:58:45.831Z,415
2017-09-15T11:59:45.723Z,764
2017-09-15T12:00:45.725Z,1096
2017-09-15T12:01:45.756Z,1096
2017-09-15T12:02:45.815Z,1041
2017-09-15T12:03:45.760Z,1017
2017-09-15T12:04:45.801Z,988
2017-09-15T12:05:45.796Z,932
2017-09-15T12:06:45.786Z,953
2017-09-15T12:07:45.823Z,985
2017-09-15T12:08:45.758Z,885
2017-09-15T12:09:45.803Z,978
2017-09-15T12:10:45.790Z,935
2017-09-15T12:11:45.742Z,987
2017-09-15T12:12:45.839Z,984
2017-09-15T12:13:45.858Z,962
2017-09-15T12:14:45.788Z,916
2017-09-15T12:15:45.758Z,922
2017-09-15T12:16:45.836Z,945
2017-09-15T12:17:45.745Z,951
2017-09-15T12:18:45.798Z,948
2017-09-15T12:19:45.794Z,985
2017-09-15T12:20:45.747Z,513
2017-09-15T12:21:45.744Z,633
2017-09-15T12:22:45.792Z,1000
2017-09-15T12:23:45.811Z,989
2017-09-15T12:24:45.814Z,992
2017-09-15T12:25:45.801Z,1010
2017-09-15T12:26:45.830Z,501
2017-09-15T12:27:45.853Z,659
2017-09-15T12:28:45.810Z,620
2017-09-15T12:29:45.765Z,728
2017-09-15T12:30:45.856Z,586
2017-09-15T12:31:45.758Z,517
2017-09-15T12:32:45.813Z,560
2017-09-15T12:33:45.814Z,599
2017-09-15T12:34:45.814Z,640
2017-09-15T12:35:45.853Z,679
2017-09-15T12:36:45.855Z,632
2017-09-15T12:37:45.806Z,653
2017-09-15T12:38:45.820Z,562
2017-09-15T12:39:45.780Z,533
2017-09-15T12:40:45.811Z,548
2017-09-15T12:41:45.787Z,580
2017-09-15T12:42:45.755Z,834
2017-09-15T12:43:45.848Z,564
2017-09-15T12:44:45.789Z,527
2017-09-15T12:45:45.808Z,533
2017-09-15T12:46:45.825Z,1212
2017-09-15T12:47:45.861Z,1175
2017-09-15T12:48:45.772Z,1165
2017-09-15T12:49:45.739Z,1112
2017-09-15T12:50:45.736Z,1067
2017-09-15T12:51:45.773Z,1020
2017-09-15T12:52:45.739Z,1005
2017-09-15T12:53:45.699Z,991
2017-09-15T12:54:45.808Z,966
2017-09-15T12:55:45.698Z,291
2017-09-15T12:56:45.774Z,914
2017-09-15T12:57:45.736Z,908
2017-09-15T12:58:45.807Z,229
2017-09-15T12:59:45.829Z,442
2017-09-15T13:00:45.819Z,914
2017-09-15T13:01:45.826Z,895
2017-09-15T13:02:45.875Z,906
2017-09-15T13:03:45.873Z,270
2017-09-15T13:04:45.792Z,590
2017-09-15T13:05:45.868Z,381
2017-09-15T13:06:45.823Z,396
2017-09-15T13:07:45.829Z,375
2017-09-15T13:08:45.820Z,382
2017-09-15T13:09:45.839Z,295
2017-09-15T13:10:45.869Z,300
2017-09-15T13:11:45.769Z,297
2017-09-15T13:12:45.804Z,308
2017-09-15T13:13:45.774Z,341
2017-09-15T13:14:45.865Z,426
2017-09-15T13:15:45.770Z,836
2017-09-15T13:16:45.812Z,434
2017-09-15T13:17:45.778Z,459
2017-09-15T13:18:45.777Z,408
2017-09-15T13:19:45.842Z,397
2017-09-15T13:20:45.835Z,458
2017-09-15T13:21:45.877Z,955
2017-09-15T13:22:45.904Z,1014
2017-09-15T13:23:45.846Z,1025
2017-09-15T13:24:45.813Z,1007
2017-09-15T13:25:45.813Z,976
2017-09-15T13:26:45.877Z,923
2017-09-15T13:27:45.882Z,868
2017-09-15T13:28:45.781Z,854
2017-09-15T13:29:45.798Z,845
2017-09-15T13:30:45.781Z,809
2017-09-15T13:31:45.812Z,742
2017-09-15T13:32:45.879Z,696
2017-09-15T13:33:45.874Z,687
2017-09-15T13:34:45.822Z,697
2017-09-15T13:35:45.808Z,730
2017-09-15T13:36:45.821Z,702
2017-09-15T13:37:45.827Z,697
2017-09-15T13:38:45.886Z,697
2017-09-15T13:39:45.822Z,677
2017-09-15T13:40:45.853Z,693
2017-09-15T13:41:45.876Z,670
2017-09-15T13:42:45.848Z,746
2017-09-15T13:43:45.830Z,461
2017-09-15T13:44:45.878Z,360
2017-09-15T13:45:45.857Z,334
2017-09-15T13:46:45.892Z,329
2017-09-15T13:47:45.813Z,344
2017-09-15T13:48:45.797Z,354
2017-09-15T13:49:45.850Z,350
2017-09-15T13:50:45.800Z,648
2017-09-15T13:51:45.854Z,642
2017-09-15T13:52:45.855Z,589
2017-09-15T13:53:45.904Z,369
2017-09-15T13:54:45.818Z,365
2017-09-15T13:55:45.905Z,537
2017-09-15T13:56:45.836Z,429
2017-09-15T13:57:45.900Z,439
2017-09-15T13:58:45.909Z,373
2017-09-15T13:59:45.912Z,402
2017-09-15T14:00:45.814Z,333
2017-09-15T14:01:45.859Z,529
2017-09-15T14:02:45.860Z,559
2017-09-15T14:03:45.909Z,606
2017-09-15T14:04:45.911Z,610
2017-09-15T14:05:45.806Z,603
2017-09-15T14:06:45.839Z,662
2017-09-15T14:07:45.929Z,501
2017-09-15T14:08:45.847Z,531
2017-09-15T14:09:45.861Z,560
2017-09-15T14:10:45.911Z,526
2017-09-15T14:11:45.840Z,538
2017-09-15T14:12:45.871Z,458